Time,TemperatureF,DewpointF,PressureIn,WindDirection,WindDirectionDegrees,WindSpeedMPH,WindSpeedGustMPH,Humidity,HourlyPrecipIn,Conditions,Clouds,dailyrainin,SoftwareType,DateUTC
2013-06-29 00:04:00,61.6,61.0,29.51,NE,47,0.0,2.0,97,0.01,,,0.00,weatherlink.com 1.10,2013-06-29 04:04:00,
2013-06-29 00:19:00,61.6,61.0,29.51,NNW,336,0.0,4.0,97,0.01,,,0.00,weatherlink.com 1.10,2013-06-29 04:19:00,
2013-06-29 00:35:00,61.4,61.0,29.51,NE,41,0.0,2.0,97,0.01,,,0.00,weatherlink.com 1.10,2013-06-29 04:35:00,
2013-06-29 00:50:00,61.3,61.0,29.50,WNW,300,1.0,2.0,97,0.00,,,0.00,weatherlink.com 1.10,2013-06-29 04:50:00,
2013-06-29 01:05:00,61.3,61.0,29.50,West,278,0.0,2.0,97,0.00,,,0.00,weatherlink.com 1.10,2013-06-29 05:05:00,
2013-06-29 01:20:00,61.3,61.0,29.50,ENE,75,0.0,2.0,97,0.00,,,0.00,weatherlink.com 1.10,2013-06-29 05:20:00,
2013-06-29 01:35:00,61.2,60.0,29.50,SE,132,0.0,2.0,97,0.00,,,0.00,weatherlink.com 1.10,2013-06-29 05:35:00,
2013-06-29 01:50:00,61.1,60.0,29.50,NE,55,1.0,4.0,97,0.01,,,0.01,weatherlink.com 1.10,2013-06-29 05:50:00,
2013-06-29 02:05:00,61.1,60.0,29.50,NNE,23,0.0,1.0,97,0.02,,,0.02,weatherlink.com 1.10,2013-06-29 06:05:00,
2013-06-29 02:20:00,61.1,60.0,29.50,NE,51,0.0,1.0,97,0.03,,,0.03,weatherlink.com 1.10,2013-06-29 06:20:00,
2013-06-29 02:35:00,61.1,60.0,29.50,East,79,1.0,2.0,97,0.04,,,0.04,weatherlink.com 1.10,2013-06-29 06:35:00,
2013-06-29 02:59:00,60.9,60.0,29.50,NE,40,1.0,3.0,97,0.02,,,0.04,weatherlink.com 1.10,2013-06-29 06:59:00,
2013-06-29 03:05:00,60.9,60.0,29.49,ESE,118,0.0,2.0,97,0.02,,,0.04,weatherlink.com 1.10,2013-06-29 07:05:00,
2013-06-29 03:20:00,60.8,60.0,29.48,East,83,0.0,4.0,97,0.01,,,0.04,weatherlink.com 1.10,2013-06-29 07:20:00,
2013-06-29 03:35:00,60.8,60.0,29.49,NNE,32,0.0,1.0,97,0.00,,,0.04,weatherlink.com 1.10,2013-06-29 07:35:00,
2013-06-29 03:50:00,60.8,60.0,29.48,ENE,77,0.0,1.0,97,0.00,,,0.04,weatherlink.com 1.10,2013-06-29 07:50:00,
2013-06-29 04:05:00,60.9,60.0,29.48,NE,49,1.0,1.0,98,0.01,,,0.05,weatherlink.com 1.10,2013-06-29 08:05:00,
2013-06-29 04:20:00,60.8,60.0,29.49,ENE,68,0.0,1.0,98,0.01,,,0.05,weatherlink.com 1.10,2013-06-29 08:20:00,
2013-06-29 04:35:00,60.9,60.0,29.49,NE,48,0.0,1.0,98,0.01,,,0.05,weatherlink.com 1.10,2013-06-29 08:35:00,
2013-06-29 04:50:00,60.9,60.0,29.48,NE,48,0.0,0.0,98,0.01,,,0.05,weatherlink.com 1.10,2013-06-29 08:50:00,
2013-06-29 05:05:00,61.0,61.0,29.49,NE,41,0.0,1.0,98,0.00,,,0.05,weatherlink.com 1.10,2013-06-29 09:05:00,
2013-06-29 05:20:00,60.9,60.0,29.49,NE,55,0.0,2.0,98,0.00,,,0.05,weatherlink.com 1.10,2013-06-29 09:20:00,
2013-06-29 05:35:00,60.9,60.0,29.49,NE,52,0.0,3.0,98,0.01,,,0.06,weatherlink.com 1.10,2013-06-29 09:35:00,
2013-06-29 05:50:00,60.9,60.0,29.49,NE,42,0.0,2.0,98,0.01,,,0.06,weatherlink.com 1.10,2013-06-29 09:50:00,
2013-06-29 06:05:00,61.0,61.0,29.50,ESE,121,0.0,3.0,98,0.01,,,0.06,weatherlink.com 1.10,2013-06-29 10:05:00,
2013-06-29 06:20:00,61.1,61.0,29.50,East,81,0.0,1.0,98,0.02,,,0.07,weatherlink.com 1.10,2013-06-29 10:20:00,
2013-06-29 06:35:00,61.1,61.0,29.50,SSW,204,0.0,2.0,98,0.01,,,0.07,weatherlink.com 1.10,2013-06-29 10:35:00,
2013-06-29 06:50:00,61.3,61.0,29.50,ESE,121,0.0,1.0,98,0.01,,,0.07,weatherlink.com 1.10,2013-06-29 10:50:00,
2013-06-29 07:05:00,61.4,61.0,29.50,NE,46,0.0,2.0,98,0.01,,,0.08,weatherlink.com 1.10,2013-06-29 11:05:00,
2013-06-29 07:20:00,61.7,61.0,29.51,North,355,0.0,3.0,98,0.01,,,0.08,weatherlink.com 1.10,2013-06-29 11:20:00,
2013-06-29 07:35:00,61.9,61.0,29.51,North,354,0.0,1.0,97,0.01,,,0.08,weatherlink.com 1.10,2013-06-29 11:35:00,
2013-06-29 07:50:00,62.0,61.0,29.52,WNW,297,0.0,2.0,97,0.00,,,0.08,weatherlink.com 1.10,2013-06-29 11:50:00,
2013-06-29 08:05:00,62.0,61.0,29.52,WSW,248,0.0,4.0,97,0.00,,,0.08,weatherlink.com 1.10,2013-06-29 12:05:00,
2013-06-29 08:20:00,62.7,62.0,29.52,WNW,295,2.0,2.0,97,0.00,,,0.08,weatherlink.com 1.10,2013-06-29 12:20:00,
2013-06-29 08:35:00,62.7,62.0,29.52,NW,321,0.0,4.0,96,0.00,,,0.08,weatherlink.com 1.10,2013-06-29 12:35:00,
2013-06-29 08:50:00,63.0,62.0,29.53,NE,48,0.0,4.0,96,0.00,,,0.08,weatherlink.com 1.10,2013-06-29 12:50:00,
2013-06-29 09:05:00,62.8,61.0,29.53,NNW,342,0.0,3.0,95,0.00,,,0.08,weatherlink.com 1.10,2013-06-29 13:05:00,
2013-06-29 09:20:00,62.7,62.0,29.54,WNW,282,0.0,2.0,96,0.00,,,0.08,weatherlink.com 1.10,2013-06-29 13:20:00,
2013-06-29 09:36:00,63.5,62.0,29.54,NW,306,0.0,4.0,95,0.00,,,0.08,weatherlink.com 1.10,2013-06-29 13:36:00,
2013-06-29 09:50:00,64.3,63.0,29.54,NE,41,1.0,4.0,95,0.00,,,0.08,weatherlink.com 1.10,2013-06-29 13:50:00,
2013-06-29 10:05:00,65.1,63.0,29.54,ENE,68,1.0,3.0,92,0.00,,,0.08,weatherlink.com 1.10,2013-06-29 14:05:00,
2013-06-29 10:20:00,66.2,64.0,29.55,NW,326,0.0,3.0,91,0.00,,,0.08,weatherlink.com 1.10,2013-06-29 14:20:00,
2013-06-29 10:35:00,68.7,64.0,29.55,NE,47,2.0,3.0,85,0.00,,,0.08,weatherlink.com 1.10,2013-06-29 14:35:00,
2013-06-29 10:50:00,67.7,64.0,29.55,NE,51,0.0,3.0,87,0.00,,,0.08,weatherlink.com 1.10,2013-06-29 14:50:00,
2013-06-29 11:06:00,68.2,64.0,29.55,West,276,0.0,4.0,86,0.00,,,0.08,weatherlink.com 1.10,2013-06-29 15:06:00,
2013-06-29 11:21:00,69.1,64.0,29.55,East,99,0.0,5.0,84,0.00,,,0.08,weatherlink.com 1.10,2013-06-29 15:21:00,
2013-06-29 11:36:00,69.7,63.0,29.56,WNW,290,0.0,4.0,80,0.00,,,0.08,weatherlink.com 1.10,2013-06-29 15:36:00,
2013-06-29 11:51:00,69.6,64.0,29.56,NNW,328,0.0,4.0,82,0.00,,,0.08,weatherlink.com 1.10,2013-06-29 15:51:00,
2013-06-29 12:06:00,70.3,64.0,29.56,NNW,339,0.0,4.0,80,0.00,,,0.08,weatherlink.com 1.10,2013-06-29 16:06:00,
2013-06-29 12:21:00,71.0,65.0,29.57,West,261,3.0,5.0,80,0.00,,,0.08,weatherlink.com 1.10,2013-06-29 16:21:00,
2013-06-29 12:36:00,71.0,63.0,29.57,SW,233,4.0,4.0,77,0.00,,,0.08,weatherlink.com 1.10,2013-06-29 16:36:00,
2013-06-29 12:51:00,71.8,64.0,29.57,NW,309,0.0,4.0,76,0.00,,,0.08,weatherlink.com 1.10,2013-06-29 16:51:00,
2013-06-29 13:06:00,73.2,63.0,29.56,West,276,1.0,5.0,70,0.00,,,0.08,weatherlink.com 1.10,2013-06-29 17:06:00,
2013-06-29 13:21:00,74.1,62.0,29.56,NNW,335,3.0,4.0,65,0.00,,,0.08,weatherlink.com 1.10,2013-06-29 17:21:00,
2013-06-29 13:36:00,74.4,62.0,29.56,WNW,297,3.0,7.0,65,0.00,,,0.08,weatherlink.com 1.10,2013-06-29 17:36:00,
2013-06-29 13:51:00,74.3,62.0,29.56,WNW,302,0.0,5.0,66,0.00,,,0.08,weatherlink.com 1.10,2013-06-29 17:51:00,
2013-06-29 14:06:00,72.6,62.0,29.57,SW,224,1.0,5.0,69,0.00,,,0.08,weatherlink.com 1.10,2013-06-29 18:06:00,
2013-06-29 14:21:00,71.6,64.0,29.57,WNW,301,2.0,5.0,76,0.00,,,0.08,weatherlink.com 1.10,2013-06-29 18:21:00,
2013-06-29 14:36:00,71.7,64.0,29.57,West,270,0.0,4.0,76,0.00,,,0.08,weatherlink.com 1.10,2013-06-29 18:36:00,
2013-06-29 14:51:00,71.2,64.0,29.58,SW,222,0.0,7.0,77,0.00,,,0.08,weatherlink.com 1.10,2013-06-29 18:51:00,
2013-06-29 15:06:00,72.4,64.0,29.58,SW,233,0.0,5.0,76,0.00,,,0.08,weatherlink.com 1.10,2013-06-29 19:06:00,
2013-06-29 15:21:00,72.8,64.0,29.58,SE,130,0.0,6.0,75,0.00,,,0.08,weatherlink.com 1.10,2013-06-29 19:21:00,
2013-06-29 15:36:00,73.9,64.0,29.58,North,354,0.0,6.0,70,0.00,,,0.08,weatherlink.com 1.10,2013-06-29 19:36:00,
2013-06-29 15:51:00,74.4,65.0,29.59,SW,219,0.0,5.0,72,0.00,,,0.08,weatherlink.com 1.10,2013-06-29 19:51:00,
2013-06-29 16:06:00,73.7,65.0,29.59,West,266,2.0,6.0,74,0.00,,,0.08,weatherlink.com 1.10,2013-06-29 20:06:00,
2013-06-29 16:21:00,74.5,65.0,29.59,NW,306,4.0,6.0,73,0.00,,,0.08,weatherlink.com 1.10,2013-06-29 20:21:00,
2013-06-29 16:36:00,74.4,66.0,29.59,NNW,333,2.0,6.0,74,0.00,,,0.08,weatherlink.com 1.10,2013-06-29 20:36:00,
2013-06-29 16:51:00,74.2,65.0,29.60,WSW,252,3.0,7.0,72,0.00,,,0.08,weatherlink.com 1.10,2013-06-29 20:51:00,
2013-06-29 17:06:00,74.9,65.0,29.60,SW,230,3.0,8.0,72,0.00,,,0.08,weatherlink.com 1.10,2013-06-29 21:06:00,
2013-06-29 17:21:00,74.3,64.0,29.60,WSW,239,0.0,8.0,70,0.00,,,0.08,weatherlink.com 1.10,2013-06-29 21:21:00,
2013-06-29 17:36:00,74.4,63.0,29.60,WNW,298,4.0,7.0,68,0.00,,,0.08,weatherlink.com 1.10,2013-06-29 21:36:00,
2013-06-29 17:51:00,75.0,64.0,29.60,WSW,250,3.0,7.0,68,0.00,,,0.08,weatherlink.com 1.10,2013-06-29 21:51:00,
2013-06-29 18:06:00,74.8,64.0,29.60,SW,230,1.0,5.0,68,0.00,,,0.08,weatherlink.com 1.10,2013-06-29 22:06:00,
2013-06-29 18:21:00,75.0,63.0,29.60,WNW,291,1.0,7.0,67,0.00,,,0.08,weatherlink.com 1.10,2013-06-29 22:21:00,
2013-06-29 18:36:00,74.3,63.0,29.61,WSW,242,2.0,6.0,67,0.00,,,0.08,weatherlink.com 1.10,2013-06-29 22:36:00,
2013-06-29 18:51:00,74.1,62.0,29.61,West,272,4.0,8.0,67,0.00,,,0.08,weatherlink.com 1.10,2013-06-29 22:51:00,
2013-06-29 19:06:00,73.9,62.0,29.62,SSE,162,0.0,6.0,67,0.00,,,0.08,weatherlink.com 1.10,2013-06-29 23:06:00,
2013-06-29 19:21:00,73.7,62.0,29.63,SSW,203,2.0,6.0,67,0.00,,,0.08,weatherlink.com 1.10,2013-06-29 23:21:00,
2013-06-29 19:36:00,72.9,62.0,29.63,SW,234,1.0,6.0,68,0.00,,,0.08,weatherlink.com 1.10,2013-06-29 23:36:00,
2013-06-29 19:52:00,71.1,61.0,29.64,WSW,247,0.0,4.0,71,0.00,,,0.08,weatherlink.com 1.10,2013-06-29 23:52:00,
2013-06-29 20:07:00,69.8,61.0,29.64,West,279,0.0,3.0,73,0.00,,,0.08,weatherlink.com 1.10,2013-06-30 00:07:00,
2013-06-29 20:22:00,68.9,61.0,29.64,West,263,0.0,0.0,76,0.00,,,0.08,weatherlink.com 1.10,2013-06-30 00:22:00,
2013-06-29 20:37:00,68.1,61.0,29.64,South,189,0.0,0.0,78,0.00,,,0.08,weatherlink.com 1.10,2013-06-30 00:37:00,
2013-06-29 20:52:00,68.2,61.0,29.64,West,274,0.0,3.0,79,0.00,,,0.08,weatherlink.com 1.10,2013-06-30 00:52:00,
2013-06-29 21:07:00,68.2,62.0,29.65,West,277,6.0,6.0,80,0.00,,,0.08,weatherlink.com 1.10,2013-06-30 01:07:00,
2013-06-29 21:22:00,68.5,63.0,29.66,WNW,282,1.0,4.0,81,0.00,,,0.08,weatherlink.com 1.10,2013-06-30 01:22:00,
2013-06-29 21:37:00,66.9,61.0,29.67,NNW,335,1.0,8.0,80,0.00,,,0.08,weatherlink.com 1.10,2013-06-30 01:37:00,
2013-06-29 21:52:00,66.2,60.0,29.68,ENE,58,0.0,2.0,81,0.00,,,0.08,weatherlink.com 1.10,2013-06-30 01:52:00,
2013-06-29 22:07:00,65.4,60.0,29.68,ENE,58,0.0,0.0,82,0.00,,,0.08,weatherlink.com 1.10,2013-06-30 02:07:00,
2013-06-29 22:22:00,64.3,59.0,29.69,NW,322,0.0,0.0,84,0.00,,,0.08,weatherlink.com 1.10,2013-06-30 02:22:00,
2013-06-29 22:37:00,63.2,59.0,29.69,NW,322,0.0,0.0,87,0.00,,,0.08,weatherlink.com 1.10,2013-06-30 02:37:00,
2013-06-29 22:52:00,62.5,59.0,29.69,NW,321,0.0,0.0,89,0.00,,,0.08,weatherlink.com 1.10,2013-06-30 02:52:00,
2013-06-29 23:07:00,61.6,58.0,29.69,NW,321,0.0,0.0,89,0.00,,,0.08,weatherlink.com 1.10,2013-06-30 03:07:00,
2013-06-29 23:22:00,60.7,59.0,29.70,NW,321,0.0,0.0,93,0.00,,,0.08,weatherlink.com 1.10,2013-06-30 03:22:00,
2013-06-29 23:36:00,60.6,59.0,29.70,NW,321,0.0,0.0,94,0.00,,,0.08,weatherlink.com 1.10,2013-06-30 03:36:00,
2013-06-29 23:51:00,60.9,59.0,29.70,NW,321,0.0,0.0,94,0.00,,,0.08,weatherlink.com 1.10,2013-06-30 03:51:00,